sensor_id;sensor_type;location;lat;lon;timestamp;temperature;humidity
22629;DHT22;11481;53.694;9.910;2022-11-02T00:01:37;12.80;99.90
22629;DHT22;11481;53.694;9.910;2022-11-02T00:04:04;13.00;99.90
22629;DHT22;11481;53.694;9.910;2022-11-02T00:06:31;13.00;99.90
22629;DHT22;11481;53.694;9.910;2022-11-02T00:08:58;13.00;99.90
22629;DHT22;11481;53.694;9.910;2022-11-02T00:11:25;12.90;99.90
22629;DHT22;11481;53.694;9.910;2022-11-02T00:13:51;13.00;99.90
22629;DHT22;11481;53.694;9.910;2022-11-02T00:16:20;12.90;99.90
22629;DHT22;11481;53.694;9.910;2022-11-02T00:18:49;12.80;99.90
22629;DHT22;11481;53.694;9.910;2022-11-02T00:21:17;12.90;99.90
22629;DHT22;11481;53.694;9.910;2022-11-02T00:23:45;12.80;99.90
22629;DHT22;11481;53.694;9.910;2022-11-02T00:26:13;12.90;99.90
22629;DHT22;11481;53.694;9.910;2022-11-02T00:28:41;12.80;99.90
22629;DHT22;11481;53.694;9.910;2022-11-02T00:31:07;12.80;99.90
22629;DHT22;11481;53.694;9.910;2022-11-02T00:33:34;12.80;99.90
22629;DHT22;11481;53.694;9.910;2022-11-02T00:36:01;12.80;99.90
22629;DHT22;11481;53.694;9.910;2022-11-02T00:38:27;12.90;99.90
22629;DHT22;11481;53.694;9.910;2022-11-02T00:40:54;12.70;99.90
22629;DHT22;11481;53.694;9.910;2022-11-02T00:43:20;12.80;99.90
22629;DHT22;11481;53.694;9.910;2022-11-02T00:45:47;12.80;99.90
22629;DHT22;11481;53.694;9.910;2022-11-02T00:48:13;12.80;99.90
22629;DHT22;11481;53.694;9.910;2022-11-02T00:50:40;12.80;99.90
22629;DHT22;11481;53.694;9.910;2022-11-02T00:53:07;12.80;99.90
22629;DHT22;11481;53.694;9.910;2022-11-02T00:55:33;12.80;99.90
22629;DHT22;11481;53.694;9.910;2022-11-02T00:58:00;12.80;99.90
22629;DHT22;11481;53.694;9.910;2022-11-02T01:00:27;12.80;99.90
22629;DHT22;11481;53.694;9.910;2022-11-02T01:02:53;12.80;99.90
22629;DHT22;11481;53.694;9.910;2022-11-02T01:05:20;12.80;99.90
22629;DHT22;11481;53.694;9.910;2022-11-02T01:07:46;12.70;99.90
22629;DHT22;11481;53.694;9.910;2022-11-02T01:10:13;12.80;99.90
22629;DHT22;11481;53.694;9.910;2022-11-02T01:12:40;12.70;99.90
22629;DHT22;11481;53.694;9.910;2022-11-02T01:15:07;12.70;99.90
22629;DHT22;11481;53.694;9.910;2022-11-02T01:17:34;12.70;99.90
22629;DHT22;11481;53.694;9.910;2022-11-02T01:20:01;12.70;99.90
22629;DHT22;11481;53.694;9.910;2022-11-02T01:22:28;12.70;99.90
22629;DHT22;11481;53.694;9.910;2022-11-02T01:24:54;12.70;99.90
22629;DHT22;11481;53.694;9.910;2022-11-02T01:27:21;12.60;99.90
22629;DHT22;11481;53.694;9.910;2022-11-02T01:29:47;12.70;99.90
22629;DHT22;11481;53.694;9.910;2022-11-02T01:32:14;12.70;99.90
22629;DHT22;11481;53.694;9.910;2022-11-02T01:34:40;12.60;99.90
22629;DHT22;11481;53.694;9.910;2022-11-02T01:37:07;12.60;99.90
22629;DHT22;11481;53.694;9.910;2022-11-02T01:39:34;12.60;99.90
22629;DHT22;11481;53.694;9.910;2022-11-02T01:42:01;12.60;99.90
22629;DHT22;11481;53.694;9.910;2022-11-02T01:44:31;12.60;99.90
22629;DHT22;11481;53.694;9.910;2022-11-02T01:47:05;12.50;99.90
22629;DHT22;11481;53.694;9.910;2022-11-02T01:49:36;12.50;99.90
22629;DHT22;11481;53.694;9.910;2022-11-02T01:52:17;12.50;99.90
22629;DHT22;11481;53.694;9.910;2022-11-02T01:54:53;12.60;99.90
22629;DHT22;11481;53.694;9.910;2022-11-02T01:57:21;12.50;99.90
22629;DHT22;11481;53.694;9.910;2022-11-02T01:59:50;12.50;99.90
22629;DHT22;11481;53.694;9.910;2022-11-02T02:02:19;12.50;99.90
22629;DHT22;11481;53.694;9.910;2022-11-02T02:04:50;12.50;99.90
22629;DHT22;11481;53.694;9.910;2022-11-02T02:07:18;12.50;99.90
22629;DHT22;11481;53.694;9.910;2022-11-02T02:09:46;12.50;99.90
22629;DHT22;11481;53.694;9.910;2022-11-02T02:12:17;12.50;99.90
22629;DHT22;11481;53.694;9.910;2022-11-02T02:14:43;12.60;99.90
22629;DHT22;11481;53.694;9.910;2022-11-02T02:17:42;12.60;99.90
22629;DHT22;11481;53.694;9.910;2022-11-02T02:20:21;12.50;99.90
22629;DHT22;11481;53.694;9.910;2022-11-02T02:26:00;12.50;99.90
22629;DHT22;11481;53.694;9.910;2022-11-02T02:28:51;12.60;99.90
22629;DHT22;11481;53.694;9.910;2022-11-02T02:34:08;12.70;99.90
22629;DHT22;11481;53.694;9.910;2022-11-02T02:36:44;12.60;99.90
22629;DHT22;11481;53.694;9.910;2022-11-02T02:39:28;12.60;99.90
22629;DHT22;11481;53.694;9.910;2022-11-02T02:42:19;12.60;99.90
22629;DHT22;11481;53.694;9.910;2022-11-02T02:47:53;12.60;99.90
22629;DHT22;11481;53.694;9.910;2022-11-02T02:50:34;12.70;99.90
22629;DHT22;11481;53.694;9.910;2022-11-02T02:53:06;12.70;99.90
22629;DHT22;11481;53.694;9.910;2022-11-02T02:55:38;12.70;99.90
22629;DHT22;11481;53.694;9.910;2022-11-02T02:58:14;12.60;99.90
22629;DHT22;11481;53.694;9.910;2022-11-02T03:00:43;12.60;99.90
22629;DHT22;11481;53.694;9.910;2022-11-02T03:03:16;12.60;99.90
22629;DHT22;11481;53.694;9.910;2022-11-02T03:05:43;12.50;99.90
22629;DHT22;11481;53.694;9.910;2022-11-02T03:08:20;12.40;99.90
22629;DHT22;11481;53.694;9.910;2022-11-02T03:10:53;12.40;99.90
22629;DHT22;11481;53.694;9.910;2022-11-02T03:19:40;12.30;99.90
22629;DHT22;11481;53.694;9.910;2022-11-02T03:21:49;12.30;99.90
22629;DHT22;11481;53.694;9.910;2022-11-02T03:24:26;12.20;99.90
22629;DHT22;11481;53.694;9.910;2022-11-02T03:27:20;12.30;99.90
22629;DHT22;11481;53.694;9.910;2022-11-02T03:30:09;12.30;99.90
22629;DHT22;11481;53.694;9.910;2022-11-02T03:32:57;12.40;99.90
22629;DHT22;11481;53.694;9.910;2022-11-02T03:38:16;12.40;99.90
22629;DHT22;11481;53.694;9.910;2022-11-02T03:40:49;12.40;99.90
22629;DHT22;11481;53.694;9.910;2022-11-02T03:43:18;12.50;99.90
22629;DHT22;11481;53.694;9.910;2022-11-02T03:45:52;12.50;99.90
22629;DHT22;11481;53.694;9.910;2022-11-02T03:48:24;12.40;99.90
22629;DHT22;11481;53.694;9.910;2022-11-02T03:51:18;12.60;99.90
22629;DHT22;11481;53.694;9.910;2022-11-02T03:54:06;12.60;99.90
22629;DHT22;11481;53.694;9.910;2022-11-02T03:56:38;12.60;99.90
22629;DHT22;11481;53.694;9.910;2022-11-02T03:59:07;12.60;99.90
22629;DHT22;11481;53.694;9.910;2022-11-02T04:01:40;12.70;99.90
22629;DHT22;11481;53.694;9.910;2022-11-02T04:04:08;12.60;99.90
22629;DHT22;11481;53.694;9.910;2022-11-02T04:06:35;12.60;99.90
22629;DHT22;11481;53.694;9.910;2022-11-02T04:09:02;12.70;99.90
22629;DHT22;11481;53.694;9.910;2022-11-02T04:11:29;12.60;99.90
22629;DHT22;11481;53.694;9.910;2022-11-02T04:14:15;12.60;99.90
22629;DHT22;11481;53.694;9.910;2022-11-02T04:17:01;12.70;99.90
22629;DHT22;11481;53.694;9.910;2022-11-02T04:19:46;12.70;99.90
22629;DHT22;11481;53.694;9.910;2022-11-02T04:22:16;12.70;99.90
22629;DHT22;11481;53.694;9.910;2022-11-02T04:25:02;12.70;99.90
22629;DHT22;11481;53.694;9.910;2022-11-02T04:27:41;12.70;99.90
22629;DHT22;11481;53.694;9.910;2022-11-02T04:30:08;12.70;99.90
22629;DHT22;11481;53.694;9.910;2022-11-02T04:32:43;12.70;99.90
22629;DHT22;11481;53.694;9.910;2022-11-02T04:35:30;12.70;99.90
22629;DHT22;11481;53.694;9.910;2022-11-02T04:37:57;12.80;99.90
22629;DHT22;11481;53.694;9.910;2022-11-02T04:40:42;12.70;99.90
22629;DHT22;11481;53.694;9.910;2022-11-02T04:43:09;12.70;99.90
22629;DHT22;11481;53.694;9.910;2022-11-02T04:45:36;12.70;99.90
22629;DHT22;11481;53.694;9.910;2022-11-02T04:48:04;12.60;99.90
22629;DHT22;11481;53.694;9.910;2022-11-02T04:50:32;12.60;99.90
22629;DHT22;11481;53.694;9.910;2022-11-02T04:53:01;12.60;99.90
22629;DHT22;11481;53.694;9.910;2022-11-02T04:55:28;12.60;99.90
22629;DHT22;11481;53.694;9.910;2022-11-02T04:57:55;12.60;99.90
22629;DHT22;11481;53.694;9.910;2022-11-02T05:00:22;12.60;99.90
22629;DHT22;11481;53.694;9.910;2022-11-02T05:02:49;12.60;99.90
22629;DHT22;11481;53.694;9.910;2022-11-02T05:05:17;12.60;99.90
22629;DHT22;11481;53.694;9.910;2022-11-02T05:07:43;12.60;99.90
22629;DHT22;11481;53.694;9.910;2022-11-02T05:10:10;12.60;99.90
22629;DHT22;11481;53.694;9.910;2022-11-02T05:12:37;12.60;99.90
22629;DHT22;11481;53.694;9.910;2022-11-02T05:15:04;12.60;99.90
22629;DHT22;11481;53.694;9.910;2022-11-02T05:17:31;12.60;99.90
22629;DHT22;11481;53.694;9.910;2022-11-02T05:19:58;12.60;99.90
22629;DHT22;11481;53.694;9.910;2022-11-02T05:22:24;12.60;99.90
22629;DHT22;11481;53.694;9.910;2022-11-02T05:24:51;12.60;99.90
22629;DHT22;11481;53.694;9.910;2022-11-02T05:27:18;12.60;99.90
22629;DHT22;11481;53.694;9.910;2022-11-02T05:29:44;12.60;99.90
22629;DHT22;11481;53.694;9.910;2022-11-02T05:32:11;12.70;99.90
22629;DHT22;11481;53.694;9.910;2022-11-02T05:34:37;12.70;99.90
22629;DHT22;11481;53.694;9.910;2022-11-02T05:37:04;12.70;99.90
22629;DHT22;11481;53.694;9.910;2022-11-02T05:39:30;12.70;99.90
22629;DHT22;11481;53.694;9.910;2022-11-02T05:41:59;12.70;99.90
22629;DHT22;11481;53.694;9.910;2022-11-02T05:44:26;12.70;99.90
22629;DHT22;11481;53.694;9.910;2022-11-02T05:46:52;12.60;99.90
22629;DHT22;11481;53.694;9.910;2022-11-02T05:49:19;12.70;99.90
22629;DHT22;11481;53.694;9.910;2022-11-02T05:51:46;12.70;99.90
22629;DHT22;11481;53.694;9.910;2022-11-02T05:54:14;12.70;99.90
22629;DHT22;11481;53.694;9.910;2022-11-02T05:56:40;12.70;99.90
22629;DHT22;11481;53.694;9.910;2022-11-02T05:59:07;12.60;99.90
22629;DHT22;11481;53.694;9.910;2022-11-02T06:01:34;12.60;99.90
22629;DHT22;11481;53.694;9.910;2022-11-02T06:04:01;12.60;99.90
22629;DHT22;11481;53.694;9.910;2022-11-02T06:06:29;12.60;99.90
22629;DHT22;11481;53.694;9.910;2022-11-02T06:08:56;12.60;99.90
22629;DHT22;11481;53.694;9.910;2022-11-02T06:11:22;12.50;99.90
22629;DHT22;11481;53.694;9.910;2022-11-02T06:13:50;12.50;99.90
22629;DHT22;11481;53.694;9.910;2022-11-02T06:16:17;12.60;99.90
22629;DHT22;11481;53.694;9.910;2022-11-02T06:18:49;12.50;99.90
22629;DHT22;11481;53.694;9.910;2022-11-02T06:21:15;12.60;99.90
22629;DHT22;11481;53.694;9.910;2022-11-02T06:23:42;12.60;99.90
22629;DHT22;11481;53.694;9.910;2022-11-02T06:26:09;12.60;99.90
22629;DHT22;11481;53.694;9.910;2022-11-02T06:28:38;12.60;99.90
22629;DHT22;11481;53.694;9.910;2022-11-02T06:31:04;12.60;99.90
22629;DHT22;11481;53.694;9.910;2022-11-02T06:33:31;12.60;99.90
22629;DHT22;11481;53.694;9.910;2022-11-02T06:35:58;12.60;99.90
22629;DHT22;11481;53.694;9.910;2022-11-02T06:38:25;12.60;99.90
22629;DHT22;11481;53.694;9.910;2022-11-02T06:40:56;12.60;99.90
22629;DHT22;11481;53.694;9.910;2022-11-02T06:43:23;12.60;99.90
22629;DHT22;11481;53.694;9.910;2022-11-02T06:45:55;12.60;99.90
22629;DHT22;11481;53.694;9.910;2022-11-02T06:48:22;12.50;99.90
22629;DHT22;11481;53.694;9.910;2022-11-02T06:51:00;12.60;99.90
22629;DHT22;11481;53.694;9.910;2022-11-02T06:53:27;12.60;99.90
22629;DHT22;11481;53.694;9.910;2022-11-02T06:55:54;12.50;99.90
22629;DHT22;11481;53.694;9.910;2022-11-02T06:58:21;12.50;99.90
22629;DHT22;11481;53.694;9.910;2022-11-02T07:00:50;12.50;99.90
22629;DHT22;11481;53.694;9.910;2022-11-02T07:03:21;12.50;99.90
22629;DHT22;11481;53.694;9.910;2022-11-02T07:05:53;12.50;99.90
22629;DHT22;11481;53.694;9.910;2022-11-02T07:08:20;12.60;99.90
22629;DHT22;11481;53.694;9.910;2022-11-02T07:10:47;12.60;99.90
22629;DHT22;11481;53.694;9.910;2022-11-02T07:13:14;12.60;99.90
22629;DHT22;11481;53.694;9.910;2022-11-02T07:15:41;12.50;99.90
22629;DHT22;11481;53.694;9.910;2022-11-02T07:18:08;12.50;99.90
22629;DHT22;11481;53.694;9.910;2022-11-02T07:20:35;12.50;99.90
22629;DHT22;11481;53.694;9.910;2022-11-02T07:23:02;12.40;99.90
22629;DHT22;11481;53.694;9.910;2022-11-02T07:25:32;12.40;99.90
22629;DHT22;11481;53.694;9.910;2022-11-02T07:27:59;12.50;99.90
22629;DHT22;11481;53.694;9.910;2022-11-02T07:30:31;12.50;99.90
22629;DHT22;11481;53.694;9.910;2022-11-02T07:32:58;12.40;99.90
22629;DHT22;11481;53.694;9.910;2022-11-02T07:35:25;12.40;99.90
22629;DHT22;11481;53.694;9.910;2022-11-02T07:37:56;12.50;99.90
22629;DHT22;11481;53.694;9.910;2022-11-02T07:40:24;12.60;99.90
22629;DHT22;11481;53.694;9.910;2022-11-02T07:42:50;12.70;99.90
22629;DHT22;11481;53.694;9.910;2022-11-02T07:45:20;12.60;99.90
22629;DHT22;11481;53.694;9.910;2022-11-02T07:47:47;12.60;99.90
22629;DHT22;11481;53.694;9.910;2022-11-02T07:50:18;12.60;99.90
22629;DHT22;11481;53.694;9.910;2022-11-02T07:52:52;12.60;99.90
22629;DHT22;11481;53.694;9.910;2022-11-02T07:55:24;12.60;99.90
22629;DHT22;11481;53.694;9.910;2022-11-02T07:57:59;12.80;99.90
22629;DHT22;11481;53.694;9.910;2022-11-02T08:00:30;12.70;99.90
22629;DHT22;11481;53.694;9.910;2022-11-02T08:02:58;12.70;99.90
22629;DHT22;11481;53.694;9.910;2022-11-02T08:05:26;12.70;99.90
22629;DHT22;11481;53.694;9.910;2022-11-02T08:08:00;12.70;99.90
22629;DHT22;11481;53.694;9.910;2022-11-02T08:10:29;12.70;99.90
22629;DHT22;11481;53.694;9.910;2022-11-02T08:13:04;12.80;99.90
22629;DHT22;11481;53.694;9.910;2022-11-02T08:15:31;12.80;99.90
22629;DHT22;11481;53.694;9.910;2022-11-02T08:18:06;12.80;99.90
22629;DHT22;11481;53.694;9.910;2022-11-02T08:20:34;12.90;99.90
22629;DHT22;11481;53.694;9.910;2022-11-02T08:23:02;12.90;99.90
22629;DHT22;11481;53.694;9.910;2022-11-02T08:25:29;13.00;99.90
22629;DHT22;11481;53.694;9.910;2022-11-02T08:27:59;13.00;99.90
22629;DHT22;11481;53.694;9.910;2022-11-02T08:30:28;12.90;99.90
22629;DHT22;11481;53.694;9.910;2022-11-02T08:33:10;12.90;99.90
22629;DHT22;11481;53.694;9.910;2022-11-02T08:35:39;13.00;99.90
22629;DHT22;11481;53.694;9.910;2022-11-02T08:38:06;13.00;99.90
22629;DHT22;11481;53.694;9.910;2022-11-02T08:40:34;13.00;99.90
22629;DHT22;11481;53.694;9.910;2022-11-02T08:43:03;13.10;99.90
22629;DHT22;11481;53.694;9.910;2022-11-02T08:45:31;13.10;99.90
22629;DHT22;11481;53.694;9.910;2022-11-02T08:48:18;13.20;99.90
22629;DHT22;11481;53.694;9.910;2022-11-02T08:50:47;13.10;99.90
22629;DHT22;11481;53.694;9.910;2022-11-02T08:53:13;13.20;99.90
22629;DHT22;11481;53.694;9.910;2022-11-02T08:55:40;13.20;99.90
22629;DHT22;11481;53.694;9.910;2022-11-02T08:58:07;13.10;99.90
22629;DHT22;11481;53.694;9.910;2022-11-02T09:00:34;13.00;99.90
22629;DHT22;11481;53.694;9.910;2022-11-02T09:03:02;13.00;99.90
22629;DHT22;11481;53.694;9.910;2022-11-02T09:05:34;13.10;99.90
22629;DHT22;11481;53.694;9.910;2022-11-02T09:08:04;13.00;99.90
22629;DHT22;11481;53.694;9.910;2022-11-02T09:10:33;13.00;99.90
22629;DHT22;11481;53.694;9.910;2022-11-02T09:13:02;13.10;99.90
22629;DHT22;11481;53.694;9.910;2022-11-02T09:15:32;13.10;99.90
22629;DHT22;11481;53.694;9.910;2022-11-02T09:17:59;13.10;99.90
22629;DHT22;11481;53.694;9.910;2022-11-02T09:20:26;13.10;99.90
22629;DHT22;11481;53.694;9.910;2022-11-02T09:22:53;13.10;99.90
22629;DHT22;11481;53.694;9.910;2022-11-02T09:25:19;13.10;99.90
22629;DHT22;11481;53.694;9.910;2022-11-02T09:27:46;13.10;99.90
22629;DHT22;11481;53.694;9.910;2022-11-02T09:30:21;13.10;99.90
22629;DHT22;11481;53.694;9.910;2022-11-02T09:32:57;13.10;99.90
22629;DHT22;11481;53.694;9.910;2022-11-02T09:35:25;13.20;99.90
22629;DHT22;11481;53.694;9.910;2022-11-02T09:37:52;13.20;99.90
22629;DHT22;11481;53.694;9.910;2022-11-02T09:40:25;13.30;99.90
22629;DHT22;11481;53.694;9.910;2022-11-02T09:43:18;13.20;99.90
22629;DHT22;11481;53.694;9.910;2022-11-02T09:49:12;13.10;99.90
22629;DHT22;11481;53.694;9.910;2022-11-02T09:51:47;13.10;99.90
22629;DHT22;11481;53.694;9.910;2022-11-02T09:54:34;13.20;99.90
22629;DHT22;11481;53.694;9.910;2022-11-02T09:57:28;13.20;99.90
22629;DHT22;11481;53.694;9.910;2022-11-02T09:59:52;13.10;99.90
22629;DHT22;11481;53.694;9.910;2022-11-02T10:02:51;13.20;99.90
22629;DHT22;11481;53.694;9.910;2022-11-02T10:16:16;13.40;99.90
22629;DHT22;11481;53.694;9.910;2022-11-02T10:18:45;13.40;99.90
22629;DHT22;11481;53.694;9.910;2022-11-02T10:21:20;13.30;99.90
22629;DHT22;11481;53.694;9.910;2022-11-02T10:24:47;13.30;99.90
22629;DHT22;11481;53.694;9.910;2022-11-02T10:27:17;13.10;99.90
22629;DHT22;11481;53.694;9.910;2022-11-02T10:32:17;13.00;99.90
22629;DHT22;11481;53.694;9.910;2022-11-02T10:34:45;12.90;99.90
22629;DHT22;11481;53.694;9.910;2022-11-02T10:37:42;13.00;99.90
22629;DHT22;11481;53.694;9.910;2022-11-02T10:40:41;13.00;99.90
22629;DHT22;11481;53.694;9.910;2022-11-02T10:46:23;13.20;99.90
22629;DHT22;11481;53.694;9.910;2022-11-02T10:49:13;13.10;99.90
22629;DHT22;11481;53.694;9.910;2022-11-02T10:51:44;13.30;99.90
22629;DHT22;11481;53.694;9.910;2022-11-02T10:54:12;13.40;99.90
22629;DHT22;11481;53.694;9.910;2022-11-02T10:56:46;13.30;99.90
22629;DHT22;11481;53.694;9.910;2022-11-02T10:59:18;13.30;99.90
22629;DHT22;11481;53.694;9.910;2022-11-02T11:04:26;13.10;99.90
22629;DHT22;11481;53.694;9.910;2022-11-02T11:06:54;13.00;99.90
22629;DHT22;11481;53.694;9.910;2022-11-02T11:09:27;13.00;99.90
22629;DHT22;11481;53.694;9.910;2022-11-02T11:12:06;13.00;99.90
22629;DHT22;11481;53.694;9.910;2022-11-02T11:14:45;13.00;99.90
22629;DHT22;11481;53.694;9.910;2022-11-02T11:17:36;13.10;99.90
22629;DHT22;11481;53.694;9.910;2022-11-02T11:20:37;13.20;99.90
22629;DHT22;11481;53.694;9.910;2022-11-02T11:23:24;13.20;99.90
22629;DHT22;11481;53.694;9.910;2022-11-02T11:25:55;13.30;99.90
22629;DHT22;11481;53.694;9.910;2022-11-02T11:28:37;13.40;99.90
22629;DHT22;11481;53.694;9.910;2022-11-02T11:31:15;13.50;99.90
22629;DHT22;11481;53.694;9.910;2022-11-02T11:33:45;13.50;99.90
22629;DHT22;11481;53.694;9.910;2022-11-02T11:36:24;13.60;99.90
22629;DHT22;11481;53.694;9.910;2022-11-02T11:38:59;13.70;99.90
22629;DHT22;11481;53.694;9.910;2022-11-02T11:41:27;13.70;99.90
22629;DHT22;11481;53.694;9.910;2022-11-02T11:43:54;13.60;99.90
22629;DHT22;11481;53.694;9.910;2022-11-02T11:46:21;13.60;99.90
22629;DHT22;11481;53.694;9.910;2022-11-02T11:51:38;13.70;99.90
22629;DHT22;11481;53.694;9.910;2022-11-02T11:54:30;13.90;99.90
22629;DHT22;11481;53.694;9.910;2022-11-02T11:59:50;13.60;99.90
22629;DHT22;11481;53.694;9.910;2022-11-02T12:02:31;13.50;99.90
22629;DHT22;11481;53.694;9.910;2022-11-02T12:05:00;13.50;99.90
22629;DHT22;11481;53.694;9.910;2022-11-02T12:10:55;13.70;99.90
22629;DHT22;11481;53.694;9.910;2022-11-02T12:20:05;14.00;99.90
22629;DHT22;11481;53.694;9.910;2022-11-02T12:25:30;14.00;99.90
22629;DHT22;11481;53.694;9.910;2022-11-02T12:28:27;14.10;99.90
22629;DHT22;11481;53.694;9.910;2022-11-02T12:31:31;14.00;99.90
22629;DHT22;11481;53.694;9.910;2022-11-02T12:36:49;14.20;99.90
22629;DHT22;11481;53.694;9.910;2022-11-02T12:42:54;14.20;99.90
22629;DHT22;11481;53.694;9.910;2022-11-02T12:45:45;14.20;99.90
22629;DHT22;11481;53.694;9.910;2022-11-02T12:48:28;14.20;99.90
22629;DHT22;11481;53.694;9.910;2022-11-02T12:51:23;14.30;99.90
22629;DHT22;11481;53.694;9.910;2022-11-02T12:54:20;14.20;99.90
22629;DHT22;11481;53.694;9.910;2022-11-02T12:56:49;14.30;99.90
22629;DHT22;11481;53.694;9.910;2022-11-02T12:59:26;14.30;99.90
22629;DHT22;11481;53.694;9.910;2022-11-02T13:03:06;14.30;99.90
22629;DHT22;11481;53.694;9.910;2022-11-02T13:05:20;14.30;99.90
22629;DHT22;11481;53.694;9.910;2022-11-02T13:10:23;14.30;99.90
22629;DHT22;11481;53.694;9.910;2022-11-02T13:12:55;14.10;99.90
22629;DHT22;11481;53.694;9.910;2022-11-02T13:15:24;14.00;99.90
22629;DHT22;11481;53.694;9.910;2022-11-02T13:17:56;14.10;99.90
22629;DHT22;11481;53.694;9.910;2022-11-02T13:20:44;14.00;99.90
22629;DHT22;11481;53.694;9.910;2022-11-02T13:28:58;14.10;99.90
22629;DHT22;11481;53.694;9.910;2022-11-02T13:31:32;14.00;99.90
22629;DHT22;11481;53.694;9.910;2022-11-02T13:34:03;13.90;99.90
22629;DHT22;11481;53.694;9.910;2022-11-02T13:36:35;13.80;99.90
22629;DHT22;11481;53.694;9.910;2022-11-02T13:39:14;13.80;99.90
22629;DHT22;11481;53.694;9.910;2022-11-02T13:44:31;13.80;99.90
22629;DHT22;11481;53.694;9.910;2022-11-02T13:47:26;13.70;99.90
22629;DHT22;11481;53.694;9.910;2022-11-02T13:50:00;13.90;99.90
22629;DHT22;11481;53.694;9.910;2022-11-02T13:52:38;13.90;99.90
22629;DHT22;11481;53.694;9.910;2022-11-02T13:55:09;13.90;99.90
22629;DHT22;11481;53.694;9.910;2022-11-02T13:57:45;14.00;99.90
22629;DHT22;11481;53.694;9.910;2022-11-02T14:02:54;14.10;99.90
22629;DHT22;11481;53.694;9.910;2022-11-02T14:05:30;14.20;99.90
22629;DHT22;11481;53.694;9.910;2022-11-02T14:08:04;14.30;99.90
22629;DHT22;11481;53.694;9.910;2022-11-02T14:10:39;14.50;99.90
22629;DHT22;11481;53.694;9.910;2022-11-02T14:13:12;14.40;99.90
22629;DHT22;11481;53.694;9.910;2022-11-02T14:15:40;14.40;99.90
22629;DHT22;11481;53.694;9.910;2022-11-02T14:18:12;14.50;99.90
22629;DHT22;11481;53.694;9.910;2022-11-02T14:20:43;14.30;99.90
22629;DHT22;11481;53.694;9.910;2022-11-02T14:25:56;14.30;99.90
22629;DHT22;11481;53.694;9.910;2022-11-02T14:28:40;14.30;99.90
22629;DHT22;11481;53.694;9.910;2022-11-02T14:39:08;14.20;99.90
22629;DHT22;11481;53.694;9.910;2022-11-02T14:42:01;14.10;99.90
22629;DHT22;11481;53.694;9.910;2022-11-02T14:44:39;14.00;99.90
22629;DHT22;11481;53.694;9.910;2022-11-02T14:47:13;13.80;99.90
22629;DHT22;11481;53.694;9.910;2022-11-02T14:49:52;13.90;99.90
22629;DHT22;11481;53.694;9.910;2022-11-02T14:52:31;14.10;99.90
22629;DHT22;11481;53.694;9.910;2022-11-02T14:58:05;14.10;99.90
22629;DHT22;11481;53.694;9.910;2022-11-02T15:00:57;14.10;99.90
22629;DHT22;11481;53.694;9.910;2022-11-02T15:06:00;13.90;99.90
22629;DHT22;11481;53.694;9.910;2022-11-02T15:08:33;14.00;99.90
22629;DHT22;11481;53.694;9.910;2022-11-02T15:14:50;13.90;99.90
22629;DHT22;11481;53.694;9.910;2022-11-02T15:19:49;13.80;99.90
22629;DHT22;11481;53.694;9.910;2022-11-02T15:22:47;13.80;99.90
22629;DHT22;11481;53.694;9.910;2022-11-02T15:25:27;13.70;99.90
22629;DHT22;11481;53.694;9.910;2022-11-02T15:28:21;13.50;99.90
22629;DHT22;11481;53.694;9.910;2022-11-02T15:30:52;13.50;99.90
22629;DHT22;11481;53.694;9.910;2022-11-02T15:33:41;13.40;99.90
22629;DHT22;11481;53.694;9.910;2022-11-02T15:36:19;13.40;99.90
22629;DHT22;11481;53.694;9.910;2022-11-02T15:38:50;13.30;99.90
22629;DHT22;11481;53.694;9.910;2022-11-02T15:51:54;13.00;99.90
22629;DHT22;11481;53.694;9.910;2022-11-02T15:54:47;12.90;99.90
22629;DHT22;11481;53.694;9.910;2022-11-02T15:57:32;12.80;99.90
22629;DHT22;11481;53.694;9.910;2022-11-02T16:00:18;12.80;99.90
22629;DHT22;11481;53.694;9.910;2022-11-02T16:02:48;12.80;99.90
22629;DHT22;11481;53.694;9.910;2022-11-02T16:07:48;12.70;99.90
22629;DHT22;11481;53.694;9.910;2022-11-02T16:10:35;12.60;99.90
22629;DHT22;11481;53.694;9.910;2022-11-02T16:13:13;12.60;99.90
22629;DHT22;11481;53.694;9.910;2022-11-02T16:15:42;12.60;99.90
22629;DHT22;11481;53.694;9.910;2022-11-02T16:18:23;12.50;99.90
22629;DHT22;11481;53.694;9.910;2022-11-02T16:20:52;12.60;99.90
22629;DHT22;11481;53.694;9.910;2022-11-02T16:23:24;12.60;99.90
22629;DHT22;11481;53.694;9.910;2022-11-02T16:25:53;12.70;99.90
22629;DHT22;11481;53.694;9.910;2022-11-02T16:28:30;12.70;99.90
22629;DHT22;11481;53.694;9.910;2022-11-02T16:33:49;12.80;99.90
22629;DHT22;11481;53.694;9.910;2022-11-02T16:36:22;12.80;99.90
22629;DHT22;11481;53.694;9.910;2022-11-02T16:39:15;12.70;99.90
22629;DHT22;11481;53.694;9.910;2022-11-02T16:41:50;12.80;99.90
22629;DHT22;11481;53.694;9.910;2022-11-02T16:44:28;12.80;99.90
22629;DHT22;11481;53.694;9.910;2022-11-02T16:52:17;12.70;99.90
22629;DHT22;11481;53.694;9.910;2022-11-02T16:54:44;12.60;99.90
22629;DHT22;11481;53.694;9.910;2022-11-02T16:59:48;12.50;99.90
22629;DHT22;11481;53.694;9.910;2022-11-02T17:02:15;12.60;99.90
22629;DHT22;11481;53.694;9.910;2022-11-02T17:04:44;12.60;99.90
22629;DHT22;11481;53.694;9.910;2022-11-02T17:07:21;12.60;99.90
22629;DHT22;11481;53.694;9.910;2022-11-02T17:09:53;12.60;99.90
22629;DHT22;11481;53.694;9.910;2022-11-02T17:12:39;12.60;99.90
22629;DHT22;11481;53.694;9.910;2022-11-02T17:15:18;12.60;99.90
22629;DHT22;11481;53.694;9.910;2022-11-02T17:17:45;12.60;99.90
22629;DHT22;11481;53.694;9.910;2022-11-02T17:25:31;12.60;99.90
22629;DHT22;11481;53.694;9.910;2022-11-02T17:28:00;12.60;99.90
22629;DHT22;11481;53.694;9.910;2022-11-02T17:35:48;12.50;99.90
22629;DHT22;11481;53.694;9.910;2022-11-02T17:38:15;12.40;99.90
22629;DHT22;11481;53.694;9.910;2022-11-02T17:40:43;12.40;99.90
22629;DHT22;11481;53.694;9.910;2022-11-02T17:43:10;12.40;99.90
22629;DHT22;11481;53.694;9.910;2022-11-02T17:45:37;12.40;99.90
22629;DHT22;11481;53.694;9.910;2022-11-02T17:48:05;12.40;99.90
22629;DHT22;11481;53.694;9.910;2022-11-02T17:50:34;12.30;99.90
22629;DHT22;11481;53.694;9.910;2022-11-02T17:53:02;12.30;99.90
22629;DHT22;11481;53.694;9.910;2022-11-02T17:55:31;12.20;99.90
22629;DHT22;11481;53.694;9.910;2022-11-02T17:57:59;12.20;99.90
22629;DHT22;11481;53.694;9.910;2022-11-02T18:00:27;12.20;99.90
22629;DHT22;11481;53.694;9.910;2022-11-02T18:02:56;12.20;99.90
22629;DHT22;11481;53.694;9.910;2022-11-02T18:05:33;12.20;99.90
22629;DHT22;11481;53.694;9.910;2022-11-02T18:08:02;12.10;99.90
22629;DHT22;11481;53.694;9.910;2022-11-02T18:10:37;12.10;99.90
22629;DHT22;11481;53.694;9.910;2022-11-02T18:13:11;12.10;99.90
22629;DHT22;11481;53.694;9.910;2022-11-02T18:15:38;12.00;99.90
22629;DHT22;11481;53.694;9.910;2022-11-02T18:18:05;12.00;99.90
22629;DHT22;11481;53.694;9.910;2022-11-02T18:20:32;11.90;99.90